Time;durP1;ratioP1;P1;durP2;ratioP2;P2;SDS_P1;SDS_P2;PMS_P1;PMS_P2;Temp;Humidity;BMP_temperature;BMP_pressure;BME280_temperature;BME280_humidity;BME280_pressure;Samples;Min_cycle;Max_cycle;Signal;HPM_P1;HPM_P2
2022/03/09 00:01:05;;;;;;;;;;;;;;;1.05;47.81;98610.50;5098187;28;19936;-82
2022/03/09 00:03:33;;;;;;;;;;;;;;;1.30;47.54;98598.75;5097632;28;19924;-80
2022/03/09 00:06:06;;;;;;;;;;;;;;;1.33;46.97;98595.59;5095984;28;19932;-81
2022/03/09 00:08:58;;;;;;;;;;;;;;;1.10;47.86;98609.00;5100062;28;19928;-81
2022/03/09 00:11:27;;;;;;;;;;;;;;;1.37;47.28;98604.78;5097112;28;19927;-81
2022/03/09 00:13:55;;;;;;;;;;;;;;;1.09;47.76;98612.72;5106628;27;20018;-80
2022/03/09 00:16:23;;;;;;;;;;;;;;;1.12;47.91;98605.06;5119443;27;19977;-80
2022/03/09 00:18:54;;;;;;;;;;;;;;;1.00;48.22;98605.03;5119503;27;19939;-79
2022/03/09 00:21:24;;;;;;;;;;;;;;;0.96;48.56;98603.03;5116033;27;19935;-80
2022/03/09 00:23:52;;;;;;;;;;;;;;;1.04;48.37;98608.06;5117042;27;20022;-81
2022/03/09 00:26:20;;;;;;;;;;;;;;;1.00;48.48;98612.25;5115323;27;19923;-81
2022/03/09 00:28:47;;;;;;;;;;;;;;;1.05;48.24;98609.69;5117568;27;19978;-82
2022/03/09 00:31:15;;;;;;;;;;;;;;;1.02;48.31;98619.00;5115547;27;19936;-82
2022/03/09 00:33:44;;;;;;;;;;;;;;;0.85;48.95;98615.38;5100748;27;20390;-83
2022/03/09 00:36:12;;;;;;;;;;;;;;;0.65;49.34;98618.38;5116108;27;19932;-80
2022/03/09 00:38:41;;;;;;;;;;;;;;;0.96;48.47;98622.63;5118212;27;19923;-80
2022/03/09 00:41:09;;;;;;;;;;;;;;;1.17;48.38;98615.03;5070939;28;19931;-80
2022/03/09 00:43:37;;;;;;;;;;;;;;;1.17;48.38;98618.56;5115598;27;19977;-80
2022/03/09 00:46:06;;;;;;;;;;;;;;;1.19;48.09;98618.31;5115898;27;19923;-81
2022/03/09 00:48:38;;;;;;;;;;;;;;;1.29;47.74;98618.53;5116320;27;19931;-80
2022/03/09 00:51:06;;;;;;;;;;;;;;;1.25;48.17;98610.16;5119272;27;20715;-79
2022/03/09 00:53:37;;;;;;;;;;;;;;;1.07;48.17;98604.94;5115294;27;19923;-80
2022/03/09 00:56:08;;;;;;;;;;;;;;;0.62;49.25;98601.97;5120716;27;20009;-79
2022/03/09 00:58:39;;;;;;;;;;;;;;;0.72;49.13;98611.06;5115520;27;19928;-79
2022/03/09 01:01:07;;;;;;;;;;;;;;;0.80;49.51;98612.59;5108158;27;19932;-81
2022/03/09 01:03:36;;;;;;;;;;;;;;;0.75;48.88;98607.94;5114895;27;19974;-82
2022/03/09 01:06:07;;;;;;;;;;;;;;;0.28;49.82;98612.34;5114898;27;20064;-81
2022/03/09 01:09:01;;;;;;;;;;;;;;;0.65;49.46;98604.19;5118340;27;20026;-82
2022/03/09 01:11:31;;;;;;;;;;;;;;;0.87;48.86;98602.59;5113656;27;19963;-80
2022/03/09 01:14:00;;;;;;;;;;;;;;;0.88;48.79;98601.53;5098897;28;19966;-82
2022/03/09 01:19:19;;;;;;;;;;;;;;;0.91;48.82;98600.28;5114046;27;20464;-82
2022/03/09 01:21:47;;;;;;;;;;;;;;;0.55;49.45;98606.63;5113195;27;20012;-82
2022/03/09 01:24:15;;;;;;;;;;;;;;;0.61;49.98;98614.53;5116024;27;20004;-81
2022/03/09 01:26:47;;;;;;;;;;;;;;;0.64;49.45;98610.56;5113610;27;20296;-80
2022/03/09 01:29:15;;;;;;;;;;;;;;;0.73;49.49;98620.69;5116407;27;20020;-81
2022/03/09 01:31:43;;;;;;;;;;;;;;;0.37;49.94;98627.00;5096961;28;19928;-81
2022/03/09 01:34:10;;;;;;;;;;;;;;;0.31;50.10;98616.41;5114327;27;20018;-82
2022/03/09 01:36:38;;;;;;;;;;;;;;;0.66;49.95;98616.53;5114881;27;19924;-80
2022/03/09 01:39:06;;;;;;;;;;;;;;;0.06;50.94;98605.91;5112463;27;20367;-80
2022/03/09 01:41:35;;;;;;;;;;;;;;;0.24;50.83;98605.84;5113038;27;19924;-80
2022/03/09 01:44:11;;;;;;;;;;;;;;;0.25;50.84;98600.25;5114515;27;19927;-81
2022/03/09 01:46:43;;;;;;;;;;;;;;;0.22;50.95;98589.22;5113757;27;19932;-80
2022/03/09 01:49:11;;;;;;;;;;;;;;;0.19;50.77;98584.31;5113326;27;19928;-80
2022/03/09 01:51:40;;;;;;;;;;;;;;;0.41;50.37;98580.06;5114532;27;19959;-82
2022/03/09 01:54:10;;;;;;;;;;;;;;;0.46;50.19;98582.88;5114978;27;20458;-82
2022/03/09 01:56:38;;;;;;;;;;;;;;;0.56;50.25;98581.50;5115351;27;19923;-82
2022/03/09 01:59:07;;;;;;;;;;;;;;;0.28;50.86;98582.97;5113105;27;19923;-80
2022/03/09 02:01:44;;;;;;;;;;;;;;;0.32;50.36;98575.28;5114217;27;19924;-82
2022/03/09 02:04:15;;;;;;;;;;;;;;;0.57;49.94;98575.09;5116845;27;19976;-82
2022/03/09 02:06:43;;;;;;;;;;;;;;;0.49;50.11;98569.06;5118480;27;19931;-80
2022/03/09 02:11:59;;;;;;;;;;;;;;;0.56;49.83;98576.16;5117826;27;19939;-80
2022/03/09 02:14:32;;;;;;;;;;;;;;;0.42;50.24;98571.00;5117237;27;19923;-80
2022/03/09 02:17:04;;;;;;;;;;;;;;;0.14;50.71;98573.50;5098219;27;19945;-80
2022/03/09 02:19:33;;;;;;;;;;;;;;;0.25;50.57;98576.19;5112012;27;20070;-81
2022/03/09 02:22:04;;;;;;;;;;;;;;;0.36;50.23;98579.94;5092383;27;19923;-80
2022/03/09 02:24:34;;;;;;;;;;;;;;;0.40;50.88;98586.47;5116392;27;19931;-80
2022/03/09 02:27:04;;;;;;;;;;;;;;;-0.10;51.71;98588.63;5114478;27;20620;-81
2022/03/09 02:29:32;;;;;;;;;;;;;;;0.14;51.38;98600.22;5115603;27;19931;-81
2022/03/09 02:32:00;;;;;;;;;;;;;;;0.26;50.75;98601.88;5112851;27;19923;-82
2022/03/09 02:34:31;;;;;;;;;;;;;;;0.08;51.46;98609.94;5089601;27;19931;-81
2022/03/09 02:36:59;;;;;;;;;;;;;;;-0.12;51.63;98607.53;5114640;27;20394;-80
2022/03/09 02:39:27;;;;;;;;;;;;;;;-0.42;52.59;98609.38;5094050;27;19932;-80
2022/03/09 02:41:57;;;;;;;;;;;;;;;-0.40;52.72;98605.44;5113898;27;19927;-79
2022/03/09 02:44:28;;;;;;;;;;;;;;;-0.58;53.87;98606.25;5111183;27;19932;-81
2022/03/09 02:46:57;;;;;;;;;;;;;;;-0.34;52.70;98609.06;5113344;27;20439;-81
2022/03/09 02:49:25;;;;;;;;;;;;;;;-0.07;51.68;98612.22;5097667;27;19924;-82
2022/03/09 02:51:54;;;;;;;;;;;;;;;0.08;51.41;98617.16;5113720;27;19973;-80
2022/03/09 02:54:25;;;;;;;;;;;;;;;0.18;50.90;98610.22;5094631;28;19946;-81
2022/03/09 03:02:44;;;;;;;;;;;;;;;-0.24;52.43;98611.19;5114158;27;19924;-80
2022/03/09 03:05:12;;;;;;;;;;;;;;;-0.44;52.77;98620.25;5113533;27;19938;-81
2022/03/09 03:07:41;;;;;;;;;;;;;;;-0.56;53.49;98617.50;5111442;27;20377;-81
2022/03/09 03:10:09;;;;;;;;;;;;;;;-0.35;53.08;98613.59;5116306;27;19927;-81
2022/03/09 03:12:38;;;;;;;;;;;;;;;-0.23;52.78;98613.63;5113825;27;19923;-80
2022/03/09 03:15:06;;;;;;;;;;;;;;;-0.52;53.67;98612.56;5110939;27;19949;-81
2022/03/09 03:17:35;;;;;;;;;;;;;;;-0.46;53.31;98614.31;5114899;27;20269;-81
2022/03/09 03:20:03;;;;;;;;;;;;;;;-0.33;52.84;98614.16;5111813;27;19934;-81
2022/03/09 03:22:31;;;;;;;;;;;;;;;-0.32;52.52;98612.31;5111587;27;19984;-81
2022/03/09 03:24:59;;;;;;;;;;;;;;;-0.42;52.51;98614.72;5112162;27;19936;-82
2022/03/09 03:27:27;;;;;;;;;;;;;;;-0.32;52.77;98613.16;5111690;27;20991;-79
2022/03/09 03:29:59;;;;;;;;;;;;;;;-0.28;52.79;98613.50;5112318;27;19930;-80
2022/03/09 03:32:28;;;;;;;;;;;;;;;-0.35;52.77;98610.09;5110533;27;20003;-81
2022/03/09 03:34:56;;;;;;;;;;;;;;;-0.34;53.22;98611.72;5112985;27;19959;-82
2022/03/09 03:37:24;;;;;;;;;;;;;;;0.02;52.05;98612.72;5114469;27;19923;-80
2022/03/09 03:39:53;;;;;;;;;;;;;;;0.12;51.76;98607.66;5112458;27;19932;-79
2022/03/09 03:42:25;;;;;;;;;;;;;;;-0.15;52.33;98608.00;5086021;28;19924;-80
2022/03/09 03:44:55;;;;;;;;;;;;;;;-0.11;52.05;98603.00;5114563;27;19923;-82
2022/03/09 03:47:24;;;;;;;;;;;;;;;-0.21;52.42;98598.22;5111442;27;19977;-80
2022/03/09 03:49:52;;;;;;;;;;;;;;;-0.13;52.14;98599.75;5112942;27;19927;-81
2022/03/09 03:52:45;;;;;;;;;;;;;;;0.02;52.19;98602.03;5113589;28;19923;-80
2022/03/09 03:55:17;;;;;;;;;;;;;;;-0.07;52.26;98604.19;5113618;28;20342;-81
2022/03/09 03:57:45;;;;;;;;;;;;;;;0.07;52.11;98608.34;5113715;28;20014;-79
2022/03/09 04:00:13;;;;;;;;;;;;;;;-0.24;52.98;98612.00;5114504;28;19932;-80
2022/03/09 04:02:43;;;;;;;;;;;;;;;-0.21;53.43;98619.59;5112663;28;20370;-82
2022/03/09 04:05:11;;;;;;;;;;;;;;;-0.42;53.70;98623.53;5115516;28;19977;-81
2022/03/09 04:07:42;;;;;;;;;;;;;;;-0.25;53.31;98626.41;5111058;28;20431;-82
2022/03/09 04:10:10;;;;;;;;;;;;;;;-0.24;52.56;98614.69;5110707;28;19932;-79
2022/03/09 04:12:38;;;;;;;;;;;;;;;-0.40;53.59;98617.97;5113765;28;19946;-80
2022/03/09 04:15:07;;;;;;;;;;;;;;;-0.59;53.79;98625.94;5110395;28;19935;-79
2022/03/09 04:17:43;;;;;;;;;;;;;;;-0.67;54.13;98620.91;5115071;28;19924;-81
2022/03/09 04:20:12;;;;;;;;;;;;;;;-0.21;53.49;98632.94;5095414;28;19924;-81
2022/03/09 04:22:40;;;;;;;;;;;;;;;-0.04;52.74;98620.59;5112003;28;20027;-81
2022/03/09 04:25:08;;;;;;;;;;;;;;;0.04;52.42;98624.00;5111904;28;19924;-80
2022/03/09 04:27:36;;;;;;;;;;;;;;;0.05;52.27;98629.09;5117178;28;19946;-80
2022/03/09 04:30:08;;;;;;;;;;;;;;;-0.14;52.47;98630.19;5112167;28;19992;-81
2022/03/09 04:32:36;;;;;;;;;;;;;;;-0.31;52.94;98635.31;5112448;28;19928;-80
2022/03/09 04:35:06;;;;;;;;;;;;;;;-0.50;53.58;98639.00;5112846;28;20262;-80
2022/03/09 04:37:36;;;;;;;;;;;;;;;-1.04;55.52;98643.22;5112460;28;20423;-80
2022/03/09 04:40:05;;;;;;;;;;;;;;;-0.81;54.83;98646.09;5109374;28;19977;-82
2022/03/09 04:42:36;;;;;;;;;;;;;;;-0.65;54.43;98650.84;5114021;27;20290;-80
2022/03/09 04:45:04;;;;;;;;;;;;;;;-0.89;54.75;98651.72;5108143;27;19923;-82
2022/03/09 04:47:33;;;;;;;;;;;;;;;-0.56;54.10;98644.19;5117520;27;19923;-81
2022/03/09 04:50:02;;;;;;;;;;;;;;;-0.42;53.39;98649.41;5115753;27;19931;-80
2022/03/09 04:52:32;;;;;;;;;;;;;;;-0.52;53.76;98649.09;5115946;27;20099;-80
2022/03/09 04:55:00;;;;;;;;;;;;;;;-0.29;52.93;98654.59;5116434;27;19924;-81
2022/03/09 04:57:29;;;;;;;;;;;;;;;-0.32;53.32;98655.03;5113375;27;19924;-80
2022/03/09 05:00:02;;;;;;;;;;;;;;;-0.81;54.76;98657.56;5117801;27;20010;-82
2022/03/09 05:05:22;;;;;;;;;;;;;;;-0.38;53.21;98655.91;5114983;27;19923;-80
2022/03/09 05:07:52;;;;;;;;;;;;;;;-0.44;53.35;98656.81;5133544;27;19971;-81
2022/03/09 05:10:20;;;;;;;;;;;;;;;-0.54;53.44;98668.00;5117411;27;19971;-83
2022/03/09 05:12:48;;;;;;;;;;;;;;;-0.28;53.13;98673.03;5116198;27;19928;-82
2022/03/09 05:15:17;;;;;;;;;;;;;;;-0.51;53.35;98672.09;5114641;27;19924;-80
2022/03/09 05:17:51;;;;;;;;;;;;;;;-0.63;54.18;98680.81;5112264;27;19924;-80
2022/03/09 05:20:43;;;;;;;;;;;;;;;-0.37;52.97;98686.94;5110622;27;19924;-84
2022/03/09 05:23:12;;;;;;;;;;;;;;;-0.38;53.53;98693.28;5113607;27;20023;-81
2022/03/09 05:25:44;;;;;;;;;;;;;;;-0.45;53.39;98697.88;5113757;27;19923;-83
2022/03/09 05:28:15;;;;;;;;;;;;;;;-0.35;53.12;98703.53;5116475;27;20011;-86
2022/03/09 05:30:42;;;;;;;;;;;;;;;-0.33;52.94;98704.13;5117189;27;19923;-80
2022/03/09 05:33:11;;;;;;;;;;;;;;;-0.32;53.03;98703.06;5103067;27;20310;-81
2022/03/09 05:35:39;;;;;;;;;;;;;;;-0.43;53.47;98696.63;5112533;27;20362;-81
2022/03/09 05:38:07;;;;;;;;;;;;;;;-0.73;54.27;98695.69;5111986;27;19969;-82
2022/03/09 05:40:36;;;;;;;;;;;;;;;-0.57;54.26;98703.16;5113073;27;19923;-80
2022/03/09 05:43:06;;;;;;;;;;;;;;;-0.66;54.88;98702.59;5119423;27;20023;-79
2022/03/09 05:45:39;;;;;;;;;;;;;;;-0.23;53.32;98696.41;5114938;27;19924;-82
2022/03/09 05:48:09;;;;;;;;;;;;;;;-0.22;53.10;98700.72;5115665;27;19931;-81
2022/03/09 05:50:37;;;;;;;;;;;;;;;-0.23;53.23;98701.75;5116119;27;19977;-87
2022/03/09 05:53:05;;;;;;;;;;;;;;;-0.64;54.12;98710.38;5113645;27;19971;-82
2022/03/09 05:55:33;;;;;;;;;;;;;;;-0.42;54.15;98713.47;5081429;27;19923;-81
2022/03/09 05:58:02;;;;;;;;;;;;;;;-0.40;53.81;98720.22;5113607;27;19964;-83
2022/03/09 06:00:32;;;;;;;;;;;;;;;-0.55;54.13;98715.22;5114740;27;19931;-84
2022/03/09 06:03:00;;;;;;;;;;;;;;;-0.61;54.63;98715.28;5117207;27;19924;-81
2022/03/09 06:05:29;;;;;;;;;;;;;;;-0.74;54.64;98710.91;5094841;27;19924;-78
2022/03/09 06:07:57;;;;;;;;;;;;;;;-0.64;54.46;98711.22;5083019;28;19994;-82
2022/03/09 06:10:26;;;;;;;;;;;;;;;-0.49;54.47;98724.19;5113956;27;22810;-80
2022/03/09 06:12:54;;;;;;;;;;;;;;;-0.42;54.28;98718.81;5116394;27;19923;-91
2022/03/09 06:15:26;;;;;;;;;;;;;;;-0.37;54.44;98719.78;5085706;28;19924;-89
2022/03/09 06:17:54;;;;;;;;;;;;;;;-0.38;54.31;98725.31;5077935;28;19989;-80
2022/03/09 06:20:23;;;;;;;;;;;;;;;-0.18;53.42;98725.13;5091634;28;19950;-90
2022/03/09 06:22:53;;;;;;;;;;;;;;;-0.22;53.85;98727.41;5089331;28;20370;-94
2022/03/09 06:25:22;;;;;;;;;;;;;;;-0.24;54.30;98726.84;5093059;28;19925;-93
2022/03/09 06:27:51;;;;;;;;;;;;;;;-0.35;54.10;98722.22;5088633;28;19931;-81
2022/03/09 06:30:25;;;;;;;;;;;;;;;-0.36;53.96;98717.94;5087973;28;19967;-80
2022/03/09 06:32:55;;;;;;;;;;;;;;;-0.46;54.06;98714.94;5089370;28;19943;-81
2022/03/09 06:35:24;;;;;;;;;;;;;;;-0.43;54.77;98714.50;5066934;28;19932;-88
2022/03/09 06:37:52;;;;;;;;;;;;;;;-0.13;53.91;98712.75;5086550;28;19939;-90
2022/03/09 06:40:21;;;;;;;;;;;;;;;0.16;53.01;98713.00;5088665;28;19924;-81
2022/03/09 06:42:49;;;;;;;;;;;;;;;-0.13;53.40;98718.09;5078774;28;19929;-81
2022/03/09 06:45:21;;;;;;;;;;;;;;;-0.23;54.14;98724.97;5085298;28;19924;-81
2022/03/09 06:47:50;;;;;;;;;;;;;;;-0.28;54.17;98730.97;5087791;28;20075;-80
2022/03/09 06:50:18;;;;;;;;;;;;;;;-0.51;55.32;98736.16;5089329;28;19928;-80
2022/03/09 06:52:47;;;;;;;;;;;;;;;-0.43;55.24;98734.00;5088390;28;19928;-79
2022/03/09 06:55:16;;;;;;;;;;;;;;;-0.15;54.27;98735.38;5082073;28;19970;-80
2022/03/09 06:57:44;;;;;;;;;;;;;;;-0.08;54.42;98734.25;5089754;28;19924;-79
2022/03/09 07:00:14;;;;;;;;;;;;;;;-0.08;54.71;98736.94;5088234;28;19931;-79
2022/03/09 07:02:43;;;;;;;;;;;;;;;-0.33;54.84;98733.50;5092525;28;20065;-82
2022/03/09 07:05:12;;;;;;;;;;;;;;;-0.15;54.62;98730.84;5089833;28;19927;-80
2022/03/09 07:07:41;;;;;;;;;;;;;;;-0.44;55.94;98736.88;5094649;28;20288;-80
2022/03/09 07:10:11;;;;;;;;;;;;;;;-0.49;55.86;98734.06;5098118;28;19928;-82
2022/03/09 07:12:42;;;;;;;;;;;;;;;-0.66;56.03;98739.97;5094518;28;19995;-81
2022/03/09 07:15:10;;;;;;;;;;;;;;;-0.52;56.03;98746.00;5119628;27;19965;-79
2022/03/09 07:17:38;;;;;;;;;;;;;;;-0.42;55.76;98753.53;5123751;27;19976;-81
2022/03/09 07:20:06;;;;;;;;;;;;;;;-0.23;54.77;98749.81;5129191;27;19923;-80
2022/03/09 07:22:44;;;;;;;;;;;;;;;-0.05;54.52;98755.19;5124306;27;19955;-83
2022/03/09 07:25:12;;;;;;;;;;;;;;;0.09;53.91;98755.84;5125056;27;19932;-80
2022/03/09 07:27:41;;;;;;;;;;;;;;;0.04;54.15;98754.88;5111863;28;19924;-81
2022/03/09 07:30:09;;;;;;;;;;;;;;;-0.07;54.61;98761.78;5129584;27;19928;-81
2022/03/09 07:32:39;;;;;;;;;;;;;;;-0.21;54.67;98761.13;5132856;27;19924;-81
2022/03/09 07:35:19;;;;;;;;;;;;;;;-0.41;54.97;98765.84;5130809;27;20390;-79
2022/03/09 07:37:50;;;;;;;;;;;;;;;-0.16;54.97;98761.28;5129926;27;19923;-80
2022/03/09 07:40:18;;;;;;;;;;;;;;;0.11;54.48;98756.47;5117461;28;19927;-79
2022/03/09 07:42:46;;;;;;;;;;;;;;;0.41;53.34;98761.84;5123636;27;19931;-82
2022/03/09 07:45:15;;;;;;;;;;;;;;;0.62;52.98;98767.75;5099057;28;19924;-81
2022/03/09 07:47:42;;;;;;;;;;;;;;;0.95;52.15;98770.78;5113068;28;19931;-80
2022/03/09 07:50:10;;;;;;;;;;;;;;;1.15;51.24;98777.72;5116018;27;19923;-81
2022/03/09 07:53:03;;;;;;;;;;;;;;;0.95;51.94;98770.78;5113366;28;20297;-83
2022/03/09 07:55:32;;;;;;;;;;;;;;;1.02;51.92;98774.19;5111673;28;19931;-81
2022/03/09 07:58:00;;;;;;;;;;;;;;;1.38;51.27;98772.41;5111758;28;19953;-82
2022/03/09 08:00:28;;;;;;;;;;;;;;;1.61;50.37;98773.50;5118507;28;19932;-81
2022/03/09 08:02:56;;;;;;;;;;;;;;;1.65;50.22;98775.47;5100325;28;19928;-81
2022/03/09 08:05:49;;;;;;;;;;;;;;;1.85;49.69;98767.06;5115937;28;19976;-81
2022/03/09 08:08:16;;;;;;;;;;;;;;;1.98;49.57;98779.44;5113617;28;20401;-82
2022/03/09 08:10:46;;;;;;;;;;;;;;;2.10;49.42;98767.63;5112842;28;19924;-80
2022/03/09 08:13:13;;;;;;;;;;;;;;;2.29;49.15;98762.13;5113532;28;20008;-80
2022/03/09 08:15:46;;;;;;;;;;;;;;;2.57;48.90;98767.53;5112170;28;19977;-83
2022/03/09 08:18:14;;;;;;;;;;;;;;;2.71;48.76;98767.25;5119035;27;19924;-81
2022/03/09 08:20:42;;;;;;;;;;;;;;;2.73;48.35;98765.16;5121592;27;20433;-83
2022/03/09 08:23:10;;;;;;;;;;;;;;;2.71;47.33;98764.56;5118311;27;20378;-84
2022/03/09 08:25:38;;;;;;;;;;;;;;;2.97;47.29;98763.16;5128144;27;19924;-85
2022/03/09 08:28:07;;;;;;;;;;;;;;;3.23;46.63;98761.75;5120055;27;19969;-81
2022/03/09 08:30:37;;;;;;;;;;;;;;;3.11;46.93;98764.50;5119207;27;19974;-82
2022/03/09 08:33:05;;;;;;;;;;;;;;;3.34;46.23;98766.22;5099189;27;20409;-80
2022/03/09 08:35:33;;;;;;;;;;;;;;;3.45;46.06;98765.34;5119382;27;20000;-85
2022/03/09 08:38:01;;;;;;;;;;;;;;;3.55;46.30;98760.13;5116159;27;19924;-83
2022/03/09 08:40:31;;;;;;;;;;;;;;;3.74;45.41;98757.19;5115536;27;19924;-80
2022/03/09 08:45:53;;;;;;;;;;;;;;;4.03;44.81;98755.19;5097046;27;19931;-81
2022/03/09 08:48:28;;;;;;;;;;;;;;;4.33;44.00;98754.78;5120421;27;19989;-81
2022/03/09 08:50:56;;;;;;;;;;;;;;;4.52;42.97;98744.50;5101833;28;19924;-83
2022/03/09 08:53:24;;;;;;;;;;;;;;;4.56;43.79;98753.72;5119160;27;19953;-81
2022/03/09 08:55:52;;;;;;;;;;;;;;;4.50;43.11;98755.53;5117458;27;20374;-82
2022/03/09 08:58:21;;;;;;;;;;;;;;;4.65;42.12;98757.59;5116433;27;19924;-82
2022/03/09 09:00:50;;;;;;;;;;;;;;;4.62;42.29;98758.88;5118141;27;19924;-81
2022/03/09 09:03:19;;;;;;;;;;;;;;;4.84;42.20;98749.97;5114992;27;19924;-81
2022/03/09 09:05:47;;;;;;;;;;;;;;;5.02;41.56;98757.72;5117314;27;19928;-83
2022/03/09 09:08:16;;;;;;;;;;;;;;;5.19;40.95;98758.41;5117394;27;19950;-81
2022/03/09 09:10:44;;;;;;;;;;;;;;;5.35;41.07;98755.88;5116653;27;20022;-82
2022/03/09 09:13:14;;;;;;;;;;;;;;;5.01;40.87;98764.19;5121339;27;19930;-81
2022/03/09 09:15:42;;;;;;;;;;;;;;;4.62;42.14;98764.28;5115607;27;20446;-79
2022/03/09 09:18:13;;;;;;;;;;;;;;;5.09;41.03;98749.44;5117079;27;19924;-81
2022/03/09 09:20:48;;;;;;;;;;;;;;;5.37;40.92;98756.41;5118414;27;19928;-81
2022/03/09 09:23:17;;;;;;;;;;;;;;;5.61;40.24;98757.69;5116286;27;19930;-81
2022/03/09 09:25:45;;;;;;;;;;;;;;;5.86;39.88;98756.22;5117366;27;19924;-75
2022/03/09 09:28:13;;;;;;;;;;;;;;;6.14;39.85;98761.31;5097589;28;19982;-81
2022/03/09 09:30:42;;;;;;;;;;;;;;;6.23;38.99;98754.34;5115130;27;19923;-83
2022/03/09 09:33:13;;;;;;;;;;;;;;;6.30;38.61;98754.09;5116274;27;19950;-82
2022/03/09 09:35:41;;;;;;;;;;;;;;;6.46;38.90;98750.41;5089392;27;20355;-80
2022/03/09 09:38:11;;;;;;;;;;;;;;;6.55;37.56;98748.00;5111696;27;19924;-80
2022/03/09 09:40:41;;;;;;;;;;;;;;;6.53;37.97;98740.16;5114748;27;19927;-79
2022/03/09 09:43:10;;;;;;;;;;;;;;;7.03;36.96;98743.25;5091354;28;19938;-79
2022/03/09 09:45:38;;;;;;;;;;;;;;;6.95;36.58;98735.69;5114205;27;19924;-80
2022/03/09 09:48:09;;;;;;;;;;;;;;;7.06;37.65;98734.63;5107684;27;19931;-84
2022/03/09 09:50:37;;;;;;;;;;;;;;;7.33;35.56;98732.47;5115173;27;20462;-81
2022/03/09 09:53:33;;;;;;;;;;;;;;;7.52;36.36;98731.97;5087410;28;20295;-81
2022/03/09 09:56:01;;;;;;;;;;;;;;;7.75;35.61;98725.16;5108185;27;20358;-82
2022/03/09 09:58:29;;;;;;;;;;;;;;;7.54;35.15;98721.69;5115998;27;20378;-82
2022/03/09 10:00:57;;;;;;;;;;;;;;;7.87;34.75;98721.09;5113742;27;20281;-83
2022/03/09 10:03:26;;;;;;;;;;;;;;;7.99;34.30;98723.50;5113393;27;19963;-80
2022/03/09 10:05:56;;;;;;;;;;;;;;;8.12;34.01;98717.50;5115135;27;19924;-83
2022/03/09 10:08:24;;;;;;;;;;;;;;;7.82;34.02;98712.97;5116397;27;19967;-83
2022/03/09 10:10:57;;;;;;;;;;;;;;;8.11;33.78;98712.38;5115899;27;20027;-81
2022/03/09 10:13:28;;;;;;;;;;;;;;;8.25;33.88;98710.69;5114229;27;19932;-81
2022/03/09 10:16:12;;;;;;;;;;;;;;;8.23;33.54;98706.66;5114365;27;19931;-82
2022/03/09 10:18:48;;;;;;;;;;;;;;;8.19;33.42;98700.16;5104089;27;19936;-81
2022/03/09 10:21:18;;;;;;;;;;;;;;;8.54;32.78;98704.66;5116520;27;20434;-81
2022/03/09 10:23:51;;;;;;;;;;;;;;;8.70;31.38;98703.50;5117489;27;19959;-83
2022/03/09 10:26:22;;;;;;;;;;;;;;;8.88;30.30;98702.03;5099195;27;19931;-83
2022/03/09 10:28:57;;;;;;;;;;;;;;;9.05;30.79;98707.88;5116428;27;19924;-83
2022/03/09 10:31:32;;;;;;;;;;;;;;;9.37;29.56;98707.34;5118679;27;19931;-80
2022/03/09 10:34:07;;;;;;;;;;;;;;;9.49;30.75;98712.44;5113464;27;19972;-81
2022/03/09 10:36:35;;;;;;;;;;;;;;;9.09;30.57;98706.22;5097831;27;19931;-81
2022/03/09 10:39:11;;;;;;;;;;;;;;;8.98;29.85;98709.28;5109387;27;20456;-79
2022/03/09 10:41:41;;;;;;;;;;;;;;;9.19;30.10;98708.06;5111720;27;19928;-79
2022/03/09 10:44:09;;;;;;;;;;;;;;;9.49;29.75;98706.19;5112464;27;19923;-77
2022/03/09 10:46:41;;;;;;;;;;;;;;;9.43;30.27;98703.53;5116412;27;19927;-79
2022/03/09 10:49:12;;;;;;;;;;;;;;;9.04;29.86;98703.53;5116207;27;22068;-79
2022/03/09 10:51:41;;;;;;;;;;;;;;;9.33;29.61;98705.53;5101471;27;19974;-81
2022/03/09 10:54:10;;;;;;;;;;;;;;;9.34;29.09;98705.22;5093830;27;19977;-82
2022/03/09 10:56:41;;;;;;;;;;;;;;;9.62;29.74;98694.66;5099088;27;19939;-79
2022/03/09 10:59:16;;;;;;;;;;;;;;;9.76;28.72;98701.06;5109193;27;19932;-79
2022/03/09 11:01:46;;;;;;;;;;;;;;;10.04;29.01;98696.69;5111769;27;19927;-80
2022/03/09 11:04:15;;;;;;;;;;;;;;;10.22;27.89;98695.91;5109768;27;19972;-78
2022/03/09 11:06:46;;;;;;;;;;;;;;;10.15;28.09;98697.38;5117014;27;20675;-78
2022/03/09 11:09:15;;;;;;;;;;;;;;;10.12;26.97;98692.50;5114973;27;19924;-78
2022/03/09 11:11:45;;;;;;;;;;;;;;;10.08;28.57;98689.59;5113620;27;20386;-79
2022/03/09 11:14:16;;;;;;;;;;;;;;;10.19;28.30;98682.94;5114851;27;19928;-78
2022/03/09 11:16:47;;;;;;;;;;;;;;;10.47;27.81;98683.97;5114084;27;19923;-79
2022/03/09 11:19:19;;;;;;;;;;;;;;;10.76;26.17;98680.34;5115831;27;21277;-78
2022/03/09 11:21:48;;;;;;;;;;;;;;;10.62;27.98;98672.09;5116673;27;19928;-79
2022/03/09 11:24:19;;;;;;;;;;;;;;;10.44;27.01;98681.84;5109382;27;19924;-78
2022/03/09 11:26:50;;;;;;;;;;;;;;;9.87;26.55;98683.56;5117376;27;19930;-78
2022/03/09 11:29:27;;;;;;;;;;;;;;;9.83;27.48;98685.25;5113526;27;19931;-79
2022/03/09 11:31:55;;;;;;;;;;;;;;;10.28;27.44;98679.59;5116401;27;19924;-78
2022/03/09 11:34:42;;;;;;;;;;;;;;;10.33;26.20;98683.06;5113779;27;19931;-79
2022/03/09 11:37:10;;;;;;;;;;;;;;;9.68;26.50;98671.81;5094231;28;19956;-78
2022/03/09 11:39:43;;;;;;;;;;;;;;;10.08;26.66;98672.50;5114261;27;19923;-78
2022/03/09 11:42:34;;;;;;;;;;;;;;;10.15;26.73;98670.22;5107317;28;20002;-78
2022/03/09 11:45:22;;;;;;;;;;;;;;;10.92;25.28;98661.88;5113192;27;20019;-78
2022/03/09 11:47:57;;;;;;;;;;;;;;;10.60;26.49;98665.34;5112253;27;20355;-79
2022/03/09 11:50:28;;;;;;;;;;;;;;;10.85;24.26;98659.53;5113524;27;20421;-77
2022/03/09 11:52:58;;;;;;;;;;;;;;;10.68;26.31;98661.97;5113943;27;19924;-78
2022/03/09 11:55:26;;;;;;;;;;;;;;;10.70;26.28;98660.56;5103355;28;20015;-78
2022/03/09 11:58:01;;;;;;;;;;;;;;;10.89;24.85;98657.06;5116903;28;19932;-78
2022/03/09 12:00:30;;;;;;;;;;;;;;;11.33;24.17;98651.16;5114425;28;19931;-79
2022/03/09 12:02:59;;;;;;;;;;;;;;;11.44;26.17;98647.16;5086258;28;19924;-79
2022/03/09 12:05:35;;;;;;;;;;;;;;;11.38;26.03;98648.38;5102601;28;22351;-80
2022/03/09 12:08:03;;;;;;;;;;;;;;;11.31;24.72;98637.06;5113577;28;20015;-79
2022/03/09 12:10:41;;;;;;;;;;;;;;;11.34;24.77;98635.66;5110776;28;19923;-79
2022/03/09 12:13:09;;;;;;;;;;;;;;;11.46;24.87;98631.38;5106174;28;19924;-78
2022/03/09 12:16:14;;;;;;;;;;;;;;;11.57;23.67;98628.47;5072680;28;19924;-79
2022/03/09 12:18:50;;;;;;;;;;;;;;;11.63;24.02;98627.25;5057583;28;20047;-77
2022/03/09 12:21:19;;;;;;;;;;;;;;;11.65;25.34;98625.84;5101680;28;19924;-78
2022/03/09 12:24:05;;;;;;;;;;;;;;;11.57;23.62;98621.09;5112961;28;19924;-79
2022/03/09 12:26:39;;;;;;;;;;;;;;;11.43;25.53;98621.06;5111074;28;19974;-77
2022/03/09 12:29:23;;;;;;;;;;;;;;;11.33;24.17;98618.53;5110118;28;19923;-76
2022/03/09 12:32:00;;;;;;;;;;;;;;;11.58;24.31;98613.75;5111377;28;20385;-75
2022/03/09 12:34:30;;;;;;;;;;;;;;;11.44;24.40;98609.06;5115817;28;19924;-75
2022/03/09 12:37:01;;;;;;;;;;;;;;;11.59;24.94;98605.28;5099916;28;20297;-77
2022/03/09 12:39:29;;;;;;;;;;;;;;;11.74;23.62;98602.25;5111666;28;19923;-78
2022/03/09 12:41:58;;;;;;;;;;;;;;;11.72;25.83;98615.38;5110820;28;19939;-78
2022/03/09 12:44:28;;;;;;;;;;;;;;;11.77;23.43;98614.44;5112655;28;19927;-78
2022/03/09 12:47:03;;;;;;;;;;;;;;;11.88;23.54;98602.31;5111661;28;19928;-77
2022/03/09 12:49:33;;;;;;;;;;;;;;;11.31;23.22;98600.91;5091710;28;19923;-78
2022/03/09 12:52:03;;;;;;;;;;;;;;;10.91;24.14;98598.53;5092704;28;19977;-78
2022/03/09 12:54:41;;;;;;;;;;;;;;;11.23;24.19;98597.75;5095981;28;19923;-77
2022/03/09 12:57:10;;;;;;;;;;;;;;;10.79;23.46;98589.25;5101867;28;20001;-78
2022/03/09 12:59:38;;;;;;;;;;;;;;;10.94;23.66;98587.09;5112357;28;19931;-78
2022/03/09 13:02:07;;;;;;;;;;;;;;;11.28;25.11;98594.13;5113687;28;20298;-77
2022/03/09 13:04:42;;;;;;;;;;;;;;;11.06;24.16;98588.53;5116564;27;19931;-78
2022/03/09 13:07:11;;;;;;;;;;;;;;;11.13;24.48;98587.06;5112489;27;19928;-78
2022/03/09 13:10:05;;;;;;;;;;;;;;;11.18;23.88;98584.22;5120030;27;19932;-78
2022/03/09 13:12:33;;;;;;;;;;;;;;;10.90;24.56;98577.91;5116895;27;19923;-78
2022/03/09 13:15:02;;;;;;;;;;;;;;;10.81;24.45;98582.41;5109807;27;19930;-78
2022/03/09 13:17:33;;;;;;;;;;;;;;;11.31;25.44;98587.31;5100763;27;19932;-78
2022/03/09 13:20:05;;;;;;;;;;;;;;;11.01;23.59;98584.78;5112808;27;20519;-79
2022/03/09 13:22:40;;;;;;;;;;;;;;;11.02;24.10;98581.00;5120566;27;19924;-78
2022/03/09 13:25:09;;;;;;;;;;;;;;;11.42;23.90;98584.09;5117280;27;19927;-78
2022/03/09 13:27:37;;;;;;;;;;;;;;;11.68;23.71;98580.91;5113167;27;19927;-77